createdAt,value
2023-03-11T00:00:34.269Z,93851.69
2023-03-11T00:03:23.371Z,93860.56
2023-03-11T00:06:09.166Z,93847.06
2023-03-11T00:08:55.068Z,93860.56
2023-03-11T00:11:41.006Z,93868.13
2023-03-11T00:14:26.989Z,93861.41
2023-03-11T00:17:12.876Z,93866.50
2023-03-11T00:19:58.839Z,93870.34
2023-03-11T00:22:44.662Z,93870.09
2023-03-11T00:25:32.717Z,93871.97
2023-03-11T00:28:18.971Z,93870.34
2023-03-11T00:31:05.295Z,93871.72
2023-03-11T00:33:51.316Z,93863.09
2023-03-11T00:36:37.099Z,93860.19
2023-03-11T00:39:23.345Z,93852.03
2023-03-11T00:42:09.180Z,93855.31
2023-03-11T00:44:55.204Z,93855.88
2023-03-11T00:47:41.428Z,93861.25
2023-03-11T00:50:33.854Z,93857.75
2023-03-11T00:53:20.056Z,93866.03
2023-03-11T00:56:10.641Z,93868.00
2023-03-11T00:58:58.122Z,93858.00
2023-03-11T01:01:44.092Z,93856.13
2023-03-11T01:04:30.195Z,93848.06
2023-03-11T01:07:16.335Z,93860.19
2023-03-11T01:10:02.714Z,93849.44
2023-03-11T01:12:48.931Z,93838.50
2023-03-11T01:15:37.118Z,93827.75
2023-03-11T01:18:22.880Z,93842.47
2023-03-11T01:21:08.737Z,93838.63
2023-03-11T01:23:54.483Z,93860.25
2023-03-11T01:26:40.256Z,93858.09
2023-03-11T01:29:26.387Z,93855.41
2023-03-11T01:32:12.358Z,93857.50
2023-03-11T01:34:58.680Z,93858.09
2023-03-11T01:37:46.256Z,93848.53
2023-03-11T01:40:43.350Z,93849.44
2023-03-11T01:43:41.892Z,93864.16
2023-03-11T01:46:53.885Z,93862.63
2023-03-11T01:49:46.819Z,93861.56
2023-03-11T01:52:33.024Z,93861.25
2023-03-11T01:55:19.411Z,93864.25
2023-03-11T01:58:08.421Z,93863.19
2023-03-11T02:00:56.356Z,93852.38
2023-03-11T02:03:42.706Z,93868.00
2023-03-11T02:06:28.712Z,93850.16
2023-03-11T02:09:14.561Z,93856.69
2023-03-11T02:12:00.728Z,93862.94
2023-03-11T02:14:49.299Z,93866.44
2023-03-11T02:17:37.186Z,93861.78
2023-03-11T02:20:33.359Z,93868.81
2023-03-11T02:23:21.957Z,93878.47
2023-03-11T02:26:13.429Z,93868.47
2023-03-11T02:29:00.868Z,93868.47
2023-03-11T02:31:47.612Z,93865.19
2023-03-11T02:34:36.456Z,93862.50
2023-03-11T02:37:22.568Z,93879.75
2023-03-11T02:40:24.640Z,93874.91
2023-03-11T02:43:16.544Z,93883.75
2023-03-11T02:46:03.130Z,93872.69
2023-03-11T02:48:49.893Z,93876.19
2023-03-11T02:51:36.759Z,93874.22
2023-03-11T02:54:22.562Z,93868.03
2023-03-11T02:57:08.433Z,93862.22
2023-03-11T02:59:54.393Z,93858.72
2023-03-11T03:02:40.529Z,93856.50
2023-03-11T03:05:26.759Z,93851.13
2023-03-11T03:08:12.524Z,93851.94
2023-03-11T03:11:00.115Z,93857.31
2023-03-11T03:13:45.828Z,93848.34
2023-03-11T03:16:31.783Z,93854.88
2023-03-11T03:19:17.584Z,93857.22
2023-03-11T03:22:04.788Z,93860.16
2023-03-11T03:24:52.947Z,93865.72
2023-03-11T03:27:39.337Z,93861.19
2023-03-11T03:30:28.423Z,93852.13
2023-03-11T03:33:14.768Z,93878.91
2023-03-11T03:36:01.099Z,93879.84
2023-03-11T03:38:56.424Z,93869.13
2023-03-11T03:41:44.213Z,93879.84
2023-03-11T03:44:30.764Z,93872.53
2023-03-11T03:47:19.210Z,93864.72
2023-03-11T03:50:07.420Z,93859.38
2023-03-11T03:52:54.505Z,93858.56
2023-03-11T03:55:41.860Z,93871.63
2023-03-11T03:58:28.856Z,93864.53
2023-03-11T04:01:15.772Z,93859.78
2023-03-11T04:04:01.495Z,93854.88
2023-03-11T04:06:48.589Z,93870.25
2023-03-11T04:09:39.615Z,93876.94
2023-03-11T04:12:25.797Z,93871.69
2023-03-11T04:15:12.279Z,93871.22
2023-03-11T04:18:00.595Z,93885.09
2023-03-11T04:20:47.241Z,93884.97
2023-03-11T04:23:34.184Z,93901.31
2023-03-11T04:26:20.267Z,93907.72
2023-03-11T04:29:06.211Z,93892.09
2023-03-11T04:31:58.166Z,93885.56
2023-03-11T04:34:44.052Z,93887.44
2023-03-11T04:37:33.805Z,93887.59
2023-03-11T04:40:20.308Z,93894.81
2023-03-11T04:43:07.018Z,93890.38
2023-03-11T04:45:53.442Z,93891.19
2023-03-11T04:48:39.952Z,93892.47
2023-03-11T04:51:26.926Z,93880.81
2023-03-11T04:54:13.161Z,93890.63
2023-03-11T04:56:59.129Z,93892.09
2023-03-11T04:59:45.455Z,93891.41
2023-03-11T05:02:33.298Z,93882.31
2023-03-11T05:05:21.306Z,93899.09
2023-03-11T05:08:07.956Z,93894.69
2023-03-11T05:10:54.260Z,93899.69
2023-03-11T05:13:41.681Z,93893.03
2023-03-11T05:16:27.914Z,93897.09
2023-03-11T05:19:32.101Z,93894.66
2023-03-11T05:22:21.603Z,93894.53
2023-03-11T05:25:08.519Z,93900.34
2023-03-11T05:27:56.595Z,93895.47
2023-03-11T05:30:42.342Z,93892.81
2023-03-11T05:33:34.781Z,93906.53
2023-03-11T05:36:21.408Z,93903.72
2023-03-11T05:39:07.333Z,93902.34
2023-03-11T05:41:56.750Z,93904.91
2023-03-11T05:44:43.048Z,93907.38
2023-03-11T05:47:28.994Z,93913.16
2023-03-11T05:50:16.360Z,93900.84
2023-03-11T05:53:04.750Z,93903.03
2023-03-11T05:56:00.831Z,93920.16
2023-03-11T05:58:47.766Z,93924.56
2023-03-11T06:01:34.122Z,93898.97
2023-03-11T06:04:20.310Z,93912.84
2023-03-11T06:07:06.456Z,93911.78
2023-03-11T06:09:55.532Z,93916.78
2023-03-11T06:12:42.148Z,93916.78
2023-03-11T06:15:37.700Z,93924.91
2023-03-11T06:18:26.639Z,93915.50
2023-03-11T06:21:19.074Z,93883.25
2023-03-11T06:24:05.710Z,93913.75
2023-03-11T06:26:52.945Z,93908.16
2023-03-11T06:29:41.527Z,93920.63
2023-03-11T06:32:29.761Z,93919.91
2023-03-11T06:35:15.704Z,93916.78
2023-03-11T06:38:01.730Z,93914.91
2023-03-11T06:40:47.901Z,93905.50
2023-03-11T06:43:34.767Z,93906.44
2023-03-11T06:46:23.207Z,93922.84
2023-03-11T06:49:10.571Z,93912.59
2023-03-11T06:51:58.796Z,93916.19
2023-03-11T06:54:44.541Z,93926.25
2023-03-11T06:57:31.622Z,93915.53
2023-03-11T07:00:21.203Z,93923.94
2023-03-11T07:03:12.449Z,93930.44
2023-03-11T07:05:58.895Z,93906.34
2023-03-11T07:08:47.048Z,93902.34
2023-03-11T07:11:33.113Z,93899.47
2023-03-11T07:14:26.119Z,93904.69
2023-03-11T07:17:15.541Z,93898.16
2023-03-11T07:20:08.996Z,93896.06
2023-03-11T07:22:54.999Z,93892.34
2023-03-11T07:25:46.601Z,93895.03
2023-03-11T07:28:32.845Z,93887.91
2023-03-11T07:31:21.126Z,93867.28
2023-03-11T07:34:11.442Z,93874.25
2023-03-11T07:36:57.394Z,93889.72
2023-03-11T07:39:43.301Z,93887.41
2023-03-11T07:42:28.998Z,93882.28
2023-03-11T07:45:17.765Z,93887.84
2023-03-11T07:48:04.164Z,93879.09
2023-03-11T07:50:50.349Z,93869.75
2023-03-11T07:53:36.356Z,93878.38
2023-03-11T07:56:27.457Z,93871.63
2023-03-11T07:59:15.939Z,93868.00
2023-03-11T08:02:04.120Z,93857.28
2023-03-11T08:04:49.920Z,93847.13
2023-03-11T08:07:36.196Z,93850.69
2023-03-11T08:10:22.050Z,93849.16
2023-03-11T08:13:08.429Z,93849.59
2023-03-11T08:15:54.668Z,93835.47
2023-03-11T08:18:42.036Z,93838.34
2023-03-11T08:21:34.930Z,93827.44
2023-03-11T08:24:20.633Z,93830.88
2023-03-11T08:27:06.584Z,93821.91
2023-03-11T08:29:52.454Z,93817.78
2023-03-11T08:32:38.791Z,93803.00
2023-03-11T08:35:26.217Z,93804.19
2023-03-11T08:38:12.405Z,93819.25
2023-03-11T08:40:58.330Z,93822.00
2023-03-11T08:43:44.685Z,93827.25
2023-03-11T08:46:33.572Z,93814.19
2023-03-11T08:49:29.288Z,93815.16
2023-03-11T08:52:15.094Z,93818.22
2023-03-11T08:55:01.038Z,93822.91
2023-03-11T08:57:46.773Z,93817.91
2023-03-11T09:00:32.868Z,93817.19
2023-03-11T09:03:18.659Z,93827.31
2023-03-11T09:06:07.156Z,93823.50
2023-03-11T09:08:53.007Z,93819.84
2023-03-11T09:11:39.324Z,93819.69
2023-03-11T09:14:25.176Z,93821.22
2023-03-11T09:17:12.186Z,93820.78
2023-03-11T09:19:58.043Z,93814.59
2023-03-11T09:22:44.026Z,93813.34
2023-03-11T09:25:30.035Z,93808.22
2023-03-11T09:28:16.054Z,93806.06
2023-03-11T09:31:01.872Z,93805.81
2023-03-11T09:33:48.074Z,93802.28
2023-03-11T09:36:34.097Z,93795.91
2023-03-11T09:39:21.247Z,93796.38
2023-03-11T09:42:15.525Z,93804.22
2023-03-11T09:45:17.809Z,93804.22
2023-03-11T09:48:07.744Z,93789.19
2023-03-11T09:51:18.118Z,93791.28
2023-03-11T09:54:05.875Z,93791.63
2023-03-11T09:56:51.885Z,93796.41
2023-03-11T09:59:40.007Z,93803.75
2023-03-11T10:02:27.741Z,93788.88
2023-03-11T10:05:22.229Z,93798.13
2023-03-11T10:08:28.316Z,93787.75
2023-03-11T10:11:19.602Z,93803.00
2023-03-11T10:14:14.489Z,93802.75
2023-03-11T10:17:37.533Z,93812.19
2023-03-11T10:20:29.641Z,93805.91
2023-03-11T10:23:26.457Z,93794.44
2023-03-11T10:26:15.611Z,93792.13
2023-03-11T10:29:18.339Z,93777.84
2023-03-11T10:32:19.394Z,93761.72
2023-03-11T10:35:21.195Z,93760.91
2023-03-11T10:38:26.698Z,93758.97
2023-03-11T10:41:42.848Z,93758.81
2023-03-11T10:44:31.414Z,93749.75
2023-03-11T10:47:25.588Z,93751.66
2023-03-11T10:50:21.105Z,93777.28
2023-03-11T10:53:15.374Z,93768.09
2023-03-11T10:56:01.226Z,93761.09
2023-03-11T10:58:50.458Z,93744.38
2023-03-11T11:01:36.835Z,93732.25
2023-03-11T11:04:36.312Z,93744.91
2023-03-11T11:07:29.709Z,93742.22
2023-03-11T11:10:19.097Z,93734.72
2023-03-11T11:13:08.221Z,93731.50
2023-03-11T11:16:20.972Z,93722.56
2023-03-11T11:19:15.283Z,93715.28
2023-03-11T11:22:04.518Z,93708.00
2023-03-11T11:24:52.231Z,93709.09
2023-03-11T11:27:37.890Z,93709.66
2023-03-11T11:30:24.739Z,93716.78
2023-03-11T11:33:28.897Z,93704.41
2023-03-11T11:36:16.438Z,93705.88
2023-03-11T11:39:05.111Z,93653.06
2023-03-11T11:41:51.136Z,93701.44
2023-03-11T11:44:37.151Z,93691.56
2023-03-11T11:47:33.857Z,93693.00
2023-03-11T11:50:26.716Z,93698.25
2023-03-11T11:53:33.043Z,93687.66
2023-03-11T11:56:18.901Z,93698.09
2023-03-11T11:59:13.692Z,93718.88
2023-03-11T12:01:59.350Z,93713.19
2023-03-11T12:04:56.164Z,93705.78
2023-03-11T12:08:15.980Z,93711.94
2023-03-11T12:11:05.101Z,93706.72
2023-03-11T12:14:00.287Z,93701.94
2023-03-11T12:16:52.396Z,93706.97
2023-03-11T12:19:58.157Z,93707.22
2023-03-11T12:23:02.429Z,93702.09
2023-03-11T12:26:19.175Z,93710.84
2023-03-11T12:29:29.008Z,93718.16
2023-03-11T12:32:35.189Z,93688.47
2023-03-11T12:35:27.828Z,93703.53
2023-03-11T12:38:19.108Z,93704.38
2023-03-11T12:41:14.113Z,93712.78
2023-03-11T12:44:02.356Z,93708.97
2023-03-11T12:46:54.728Z,93716.03
2023-03-11T12:49:45.563Z,93726.75
2023-03-11T12:52:53.101Z,93735.28
2023-03-11T12:55:40.162Z,93738.28
2023-03-11T12:58:47.589Z,93748.28
2023-03-11T13:02:16.605Z,93740.19
2023-03-11T13:05:33.181Z,93746.34
2023-03-11T13:08:34.215Z,93753.38
2023-03-11T13:11:32.460Z,93765.78
2023-03-11T13:14:31.320Z,93775.50
2023-03-11T13:17:25.722Z,93764.09
2023-03-11T13:20:42.873Z,93765.34
2023-03-11T13:23:40.527Z,93776.31
2023-03-11T13:26:34.517Z,93770.09
2023-03-11T13:29:38.937Z,93765.75
2023-03-11T13:32:27.888Z,93809.38
2023-03-11T13:35:32.790Z,93808.53
2023-03-11T13:38:40.797Z,93795.75
2023-03-11T13:41:32.130Z,93796.97
2023-03-11T13:44:24.285Z,93825.84
2023-03-11T13:47:15.082Z,93826.22
2023-03-11T13:50:27.257Z,93837.47
2023-03-11T13:53:36.750Z,93858.19
2023-03-11T13:56:26.827Z,93859.94
2023-03-11T13:59:27.436Z,93863.88
2023-03-11T14:02:21.845Z,93869.63
2023-03-11T14:05:15.568Z,93877.56
2023-03-11T14:08:20.607Z,93906.22
2023-03-11T14:11:12.602Z,93884.72
2023-03-11T14:13:58.363Z,93889.31
2023-03-11T14:16:45.188Z,93941.25
2023-03-11T14:19:31.357Z,93927.19
2023-03-11T14:22:17.411Z,93947.34
2023-03-11T14:25:08.628Z,93960.78
2023-03-11T14:27:57.582Z,93987.88
2023-03-11T14:30:55.574Z,93965.94
2023-03-11T14:33:41.608Z,94001.59
2023-03-11T14:36:27.393Z,93993.78
2023-03-11T14:39:40.026Z,94002.25
2023-03-11T14:42:35.543Z,94007.69
2023-03-11T14:45:24.201Z,94012.47
2023-03-11T14:48:23.886Z,94018.56
2023-03-11T14:51:31.677Z,94020.22
2023-03-11T14:54:24.551Z,94017.25
2023-03-11T14:57:44.184Z,94038.66
2023-03-11T15:00:50.835Z,94039.84
2023-03-11T15:03:40.325Z,94072.97
2023-03-11T15:06:28.635Z,94097.28
2023-03-11T15:09:23.612Z,94092.38
2023-03-11T15:12:36.025Z,94101.34
2023-03-11T15:15:28.851Z,94081.25
2023-03-11T15:18:24.678Z,94134.66
2023-03-11T15:21:15.525Z,94145.94
2023-03-11T15:24:05.304Z,94142.28
2023-03-11T15:26:55.592Z,94162.22
2023-03-11T15:29:50.902Z,94154.91
2023-03-11T15:32:44.209Z,94173.63
2023-03-11T15:35:31.150Z,94177.97
2023-03-11T15:38:25.531Z,94198.28
2023-03-11T15:41:11.564Z,94201.38
2023-03-11T15:44:02.088Z,94199.97
2023-03-11T15:46:48.269Z,94215.56
2023-03-11T15:49:44.036Z,94212.91
2023-03-11T15:52:29.910Z,94198.16
2023-03-11T15:55:16.310Z,94226.25
2023-03-11T15:58:08.069Z,94243.75
2023-03-11T16:00:56.606Z,94241.69
2023-03-11T16:03:42.753Z,94265.53
2023-03-11T16:06:28.663Z,94257.69
2023-03-11T16:09:15.856Z,94265.31
2023-03-11T16:12:02.752Z,94250.13
2023-03-11T16:14:49.982Z,94269.81
2023-03-11T16:17:48.878Z,94296.09
2023-03-11T16:20:48.407Z,94305.34
2023-03-11T16:23:50.313Z,94314.94
2023-03-11T16:26:36.973Z,94302.84
2023-03-11T16:29:23.816Z,94295.88
2023-03-11T16:32:10.644Z,94328.91
2023-03-11T16:34:56.478Z,94313.56
2023-03-11T16:37:43.483Z,94339.41
2023-03-11T16:40:29.595Z,94336.69
2023-03-11T16:43:15.815Z,94340.63
2023-03-11T16:46:01.826Z,94343.28
2023-03-11T16:48:47.899Z,94351.09
2023-03-11T16:51:34.504Z,94346.38
2023-03-11T16:54:20.331Z,94358.88
2023-03-11T16:57:06.330Z,94361.75
2023-03-11T16:59:52.571Z,94373.44
2023-03-11T17:02:38.839Z,94381.06
2023-03-11T17:05:24.899Z,94395.59
2023-03-11T17:08:11.506Z,94394.19
2023-03-11T17:10:58.147Z,94405.44
2023-03-11T17:13:44.100Z,94408.72
2023-03-11T17:16:30.071Z,94408.72
2023-03-11T17:19:16.074Z,94425.72
2023-03-11T17:22:02.334Z,94450.34
2023-03-11T17:24:48.279Z,94460.78
2023-03-11T17:27:34.178Z,94480.22
2023-03-11T17:30:35.671Z,94476.34
2023-03-11T17:33:22.623Z,94480.44
2023-03-11T17:36:09.991Z,94473.00
2023-03-11T17:38:56.127Z,94472.38
2023-03-11T17:41:41.924Z,94450.56
2023-03-11T17:44:30.082Z,94466.75
2023-03-11T17:47:20.143Z,94469.56
2023-03-11T17:50:06.882Z,94486.81
2023-03-11T17:52:53.647Z,94517.91
2023-03-11T17:55:40.649Z,94520.72
2023-03-11T17:58:26.781Z,94518.88
2023-03-11T18:01:15.351Z,94539.16
2023-03-11T18:04:01.914Z,94526.19
2023-03-11T18:06:48.220Z,94531.75
2023-03-11T18:09:34.044Z,94531.13
2023-03-11T18:12:20.783Z,94516.97
2023-03-11T18:15:11.992Z,94537.03
2023-03-11T18:17:58.292Z,94542.97
2023-03-11T18:20:44.335Z,94552.94
2023-03-11T18:23:33.058Z,94553.38
2023-03-11T18:26:19.882Z,94560.31
2023-03-11T18:29:06.052Z,94556.16
2023-03-11T18:31:51.892Z,94560.19
2023-03-11T18:34:37.910Z,94565.91
2023-03-11T18:37:25.048Z,94596.13
2023-03-11T18:40:12.023Z,94600.09
2023-03-11T18:42:58.513Z,94581.34
2023-03-11T18:45:44.380Z,94613.94
2023-03-11T18:48:30.347Z,94618.34
2023-03-11T18:51:16.595Z,94630.47
2023-03-11T18:54:02.947Z,94631.22
2023-03-11T18:56:50.288Z,94638.19
2023-03-11T18:59:36.586Z,94642.50
2023-03-11T19:02:22.757Z,94649.22
2023-03-11T19:05:08.884Z,94649.47
2023-03-11T19:07:54.999Z,94642.88
2023-03-11T19:10:42.692Z,94653.16
2023-03-11T19:13:40.722Z,94649.97
2023-03-11T19:16:32.121Z,94641.34
2023-03-11T19:19:18.801Z,94647.22
2023-03-11T19:22:05.693Z,94647.16
2023-03-11T19:24:53.777Z,94655.66
2023-03-11T19:27:40.284Z,94663.28
2023-03-11T19:30:26.830Z,94674.34
2023-03-11T19:33:12.850Z,94668.75
2023-03-11T19:36:00.740Z,94683.91
2023-03-11T19:38:47.762Z,94688.84
2023-03-11T19:41:34.031Z,94686.81
2023-03-11T19:44:20.033Z,94690.31
2023-03-11T19:47:08.778Z,94694.25
2023-03-11T19:49:55.168Z,94707.75
2023-03-11T19:52:41.008Z,94685.84
2023-03-11T19:55:27.302Z,94718.84
2023-03-11T19:58:14.409Z,94718.19
2023-03-11T20:01:00.820Z,94717.63
2023-03-11T20:03:47.164Z,94722.47
2023-03-11T20:06:33.276Z,94717.63
2023-03-11T20:09:20.481Z,94728.09
2023-03-11T20:12:06.582Z,94717.47
2023-03-11T20:14:52.870Z,94718.91
2023-03-11T20:17:38.782Z,94731.28
2023-03-11T20:20:24.826Z,94734.56
2023-03-11T20:23:11.642Z,94717.56
2023-03-11T20:25:57.500Z,94704.66
2023-03-11T20:28:44.012Z,94721.06
2023-03-11T20:31:30.438Z,94691.00
2023-03-11T20:34:16.649Z,94703.38
2023-03-11T20:37:03.016Z,94730.06
2023-03-11T20:39:48.870Z,94710.91
2023-03-11T20:42:35.732Z,94696.28
2023-03-11T20:45:22.048Z,94731.91
2023-03-11T20:48:08.652Z,94709.28
2023-03-11T20:50:54.399Z,94735.38
2023-03-11T20:53:40.595Z,94722.19
2023-03-11T20:56:26.880Z,94743.63
2023-03-11T20:59:14.263Z,94757.75
2023-03-11T21:02:00.379Z,94761.19
2023-03-11T21:04:47.951Z,94763.56
2023-03-11T21:07:34.332Z,94763.50
2023-03-11T21:10:20.561Z,94775.63
2023-03-11T21:13:07.265Z,94772.69
2023-03-11T21:15:56.397Z,94785.16
2023-03-11T21:18:44.324Z,94789.56
2023-03-11T21:21:30.301Z,94730.63
2023-03-11T21:24:16.488Z,94783.38
2023-03-11T21:27:02.820Z,94786.63
2023-03-11T21:29:49.322Z,94777.63
2023-03-11T21:32:35.673Z,94780.56
2023-03-11T21:35:21.968Z,94784.88
2023-03-11T21:38:07.764Z,94776.34
2023-03-11T21:40:54.625Z,94789.91
2023-03-11T21:43:41.892Z,94787.00
2023-03-11T21:46:30.058Z,94812.28
2023-03-11T21:49:16.049Z,94803.22
2023-03-11T21:52:02.647Z,94795.72
2023-03-11T21:54:48.650Z,94807.16
2023-03-11T21:57:34.584Z,94819.91
2023-03-11T22:00:21.359Z,94818.19
2023-03-11T22:03:07.266Z,94830.94
2023-03-11T22:06:00.497Z,94827.19
2023-03-11T22:08:46.813Z,94812.53
2023-03-11T22:11:33.175Z,94820.31
2023-03-11T22:14:19.119Z,94801.34
2023-03-11T22:17:05.038Z,94807.56
2023-03-11T22:19:50.881Z,94829.56
2023-03-11T22:22:36.884Z,94811.41
2023-03-11T22:25:22.894Z,94827.09
2023-03-11T22:28:12.158Z,94836.34
2023-03-11T22:30:57.963Z,94823.59
2023-03-11T22:33:43.974Z,94849.38
2023-03-11T22:36:29.865Z,94840.28
2023-03-11T22:39:15.554Z,94843.63
2023-03-11T22:42:02.176Z,94840.75
2023-03-11T22:44:48.356Z,94824.72
2023-03-11T22:47:34.140Z,94838.84
2023-03-11T22:50:20.158Z,94825.97
2023-03-11T22:53:06.070Z,94848.00
2023-03-11T22:55:52.388Z,94836.06
2023-03-11T22:58:38.687Z,94850.84
2023-03-11T23:01:24.770Z,94829.03
2023-03-11T23:04:10.986Z,94854.53
2023-03-11T23:06:56.696Z,94852.41
2023-03-11T23:09:43.081Z,94861.22
2023-03-11T23:12:28.907Z,94842.69
2023-03-11T23:15:17.685Z,94863.06
2023-03-11T23:18:03.468Z,94868.28
2023-03-11T23:20:49.515Z,94868.09
2023-03-11T23:23:35.276Z,94854.22
2023-03-11T23:26:22.056Z,94877.72
2023-03-11T23:29:07.893Z,94857.75
2023-03-11T23:31:53.735Z,94883.25
2023-03-11T23:34:39.538Z,94851.56
2023-03-11T23:37:25.335Z,94866.00
2023-03-11T23:40:11.501Z,94876.25
2023-03-11T23:42:57.422Z,94862.41
2023-03-11T23:45:43.245Z,94878.56
2023-03-11T23:48:29.221Z,94889.53
2023-03-11T23:51:15.197Z,94896.88
2023-03-11T23:54:01.017Z,94877.03
2023-03-11T23:56:46.915Z,94893.94
2023-03-11T23:59:32.877Z,94900.09
